Time,TemperatureF,DewpointF,PressureIn,WindDirection,WindDirectionDegrees,WindSpeedMPH,WindSpeedGustMPH,Humidity,HourlyPrecipIn,Conditions,Clouds,dailyrainin,SolarRadiationWatts/m^2,SoftwareType,DateUTC
2013-03-07 00:02:00,37.0,16.0,-100.00,North,358,5.0,10.0,42,-99.99,,,0.00,0.000000,,2013-03-07 08:02:00,
2013-03-07 00:11:00,37.0,16.0,-100.00,North,358,5.0,10.0,42,-99.99,,,0.00,0.000000,,2013-03-07 08:11:00,
2013-03-07 00:43:00,35.0,16.0,-100.00,North,356,4.0,6.0,44,-99.99,,,0.00,0.000000,,2013-03-07 08:43:00,
2013-03-07 00:53:00,35.0,16.0,-100.00,North,356,4.0,6.0,44,-99.99,,,0.00,0.000000,,2013-03-07 08:53:00,
2013-03-07 01:02:00,35.0,16.0,-100.00,North,356,4.0,6.0,44,-99.99,,,0.00,0.000000,,2013-03-07 09:02:00,
2013-03-07 01:11:00,35.0,16.0,-100.00,North,356,4.0,6.0,44,-99.99,,,0.00,0.000000,,2013-03-07 09:11:00,
2013-03-07 01:42:00,33.0,16.0,-100.00,NNW,347,5.0,7.0,48,-99.99,,,0.00,0.000000,,2013-03-07 09:42:00,
2013-03-07 01:53:00,33.0,16.0,-100.00,NNW,347,5.0,7.0,48,-99.99,,,0.00,0.000000,,2013-03-07 09:53:00,
2013-03-07 02:02:00,33.0,16.0,-100.00,NNW,347,5.0,7.0,48,-99.99,,,0.00,0.000000,,2013-03-07 10:02:00,
2013-03-07 02:11:00,33.0,16.0,-100.00,NNW,347,5.0,7.0,48,-99.99,,,0.00,0.000000,,2013-03-07 10:11:00,
2013-03-07 02:42:00,31.0,16.0,-100.00,WNW,301,2.0,5.0,54,-99.99,,,0.00,0.000000,,2013-03-07 10:42:00,
2013-03-07 02:53:00,31.0,16.0,-100.00,WNW,301,2.0,5.0,54,-99.99,,,0.00,0.000000,,2013-03-07 10:53:00,
2013-03-07 03:02:00,31.0,16.0,-100.00,WNW,301,2.0,5.0,54,-99.99,,,0.00,0.000000,,2013-03-07 11:02:00,
2013-03-07 03:11:00,31.0,16.0,-100.00,WNW,301,2.0,5.0,54,-99.99,,,0.00,0.000000,,2013-03-07 11:11:00,
2013-03-07 03:42:00,31.0,17.0,-100.00,NW,317,5.0,7.0,54,-99.99,,,0.00,0.000000,,2013-03-07 11:42:00,
2013-03-07 03:54:00,31.0,17.0,-100.00,NW,317,5.0,7.0,54,-99.99,,,0.00,0.000000,,2013-03-07 11:54:00,
2013-03-07 04:02:00,31.0,17.0,-100.00,NW,317,5.0,7.0,54,-99.99,,,0.00,0.000000,,2013-03-07 12:02:00,
2013-03-07 04:11:00,31.0,17.0,-100.00,NW,317,5.0,7.0,54,-99.99,,,0.00,0.000000,,2013-03-07 12:11:00,
2013-03-07 04:33:00,27.0,16.0,-100.00,West,261,2.0,3.0,62,-99.99,,,0.00,0.000000,,2013-03-07 12:33:00,
2013-03-07 04:42:00,27.0,16.0,-100.00,West,261,2.0,3.0,62,-99.99,,,0.00,0.000000,,2013-03-07 12:42:00,
2013-03-07 04:52:00,27.0,16.0,-100.00,West,261,2.0,3.0,62,-99.99,,,0.00,0.000000,,2013-03-07 12:52:00,
2013-03-07 05:02:00,27.0,16.0,-100.00,West,261,2.0,3.0,62,-99.99,,,0.00,0.000000,,2013-03-07 13:02:00,
2013-03-07 05:12:00,27.0,16.0,-100.00,West,261,2.0,3.0,62,-99.99,,,0.00,0.000000,,2013-03-07 13:12:00,
2013-03-07 06:42:00,25.0,17.0,-100.00,WSW,256,1.0,4.0,72,-99.99,,,0.00,0.460000,,2013-03-07 14:42:00,
2013-03-07 06:53:00,25.0,17.0,-100.00,WSW,256,1.0,4.0,72,-99.99,,,0.00,0.460000,,2013-03-07 14:53:00,
2013-03-07 07:02:00,25.0,17.0,-100.00,WSW,256,1.0,4.0,72,-99.99,,,0.00,0.460000,,2013-03-07 15:02:00,
2013-03-07 07:11:00,25.0,17.0,-100.00,WSW,256,1.0,4.0,72,-99.99,,,0.00,0.460000,,2013-03-07 15:11:00,
2013-03-07 07:42:00,29.0,19.0,-100.00,WSW,241,1.0,3.0,67,-99.99,,,0.00,50.320000,,2013-03-07 15:42:00,
2013-03-07 07:53:00,29.0,19.0,-100.00,WSW,241,1.0,3.0,67,-99.99,,,0.00,50.320000,,2013-03-07 15:53:00,
2013-03-07 08:01:00,29.0,19.0,-100.00,WSW,241,1.0,3.0,67,-99.99,,,0.00,50.320000,,2013-03-07 16:01:00,
2013-03-07 08:11:00,29.0,19.0,-100.00,WSW,241,1.0,3.0,67,-99.99,,,0.00,50.320000,,2013-03-07 16:11:00,
2013-03-07 08:42:00,34.0,20.0,-100.00,WNW,296,4.0,6.0,55,-99.99,,,0.00,136.440002,,2013-03-07 16:42:00,
2013-03-07 08:53:00,34.0,20.0,-100.00,WNW,296,4.0,6.0,55,-99.99,,,0.00,136.440002,,2013-03-07 16:53:00,
2013-03-07 09:01:00,34.0,20.0,-100.00,WNW,296,4.0,6.0,55,-99.99,,,0.00,136.440002,,2013-03-07 17:01:00,
2013-03-07 09:11:00,34.0,20.0,-100.00,WNW,296,4.0,6.0,55,-99.99,,,0.00,136.440002,,2013-03-07 17:11:00,
2013-03-07 09:42:00,36.0,17.0,-100.00,NW,318,2.0,4.0,45,-99.99,,,0.00,207.100006,,2013-03-07 17:42:00,
2013-03-07 09:54:00,36.0,17.0,-100.00,NW,318,2.0,4.0,45,-99.99,,,0.00,207.100006,,2013-03-07 17:54:00,
2013-03-07 10:02:00,36.0,17.0,-100.00,NW,318,2.0,4.0,45,-99.99,,,0.00,207.100006,,2013-03-07 18:02:00,
2013-03-07 10:11:00,36.0,17.0,-100.00,NW,318,2.0,4.0,45,-99.99,,,0.00,207.100006,,2013-03-07 18:11:00,
2013-03-07 10:42:00,38.0,18.0,-100.00,SW,228,4.0,9.0,43,-99.99,,,0.00,281.140015,,2013-03-07 18:42:00,
2013-03-07 10:52:00,38.0,18.0,-100.00,SW,228,4.0,9.0,43,-99.99,,,0.00,281.140015,,2013-03-07 18:52:00,
2013-03-07 11:02:00,38.0,18.0,-100.00,SW,228,4.0,9.0,43,-99.99,,,0.00,281.140015,,2013-03-07 19:02:00,
2013-03-07 11:11:00,38.0,18.0,-100.00,SW,228,4.0,9.0,43,-99.99,,,0.00,281.140015,,2013-03-07 19:11:00,
2013-03-07 11:43:00,38.0,25.0,-100.00,SSW,206,5.0,8.0,57,-99.99,,,0.00,433.269989,,2013-03-07 19:43:00,
2013-03-07 11:52:00,38.0,25.0,-100.00,SSW,206,5.0,8.0,57,-99.99,,,0.00,433.269989,,2013-03-07 19:52:00,
2013-03-07 12:01:00,38.0,25.0,-100.00,SSW,206,5.0,8.0,57,-99.99,,,0.00,433.269989,,2013-03-07 20:01:00,
2013-03-07 12:42:00,39.0,28.0,-100.00,SE,140,3.0,7.0,63,-99.99,,,0.00,384.690002,,2013-03-07 20:42:00,
2013-03-07 12:53:00,39.0,28.0,-100.00,SE,140,3.0,7.0,63,-99.99,,,0.00,384.690002,,2013-03-07 20:53:00,
2013-03-07 13:02:00,39.0,28.0,-100.00,SE,140,3.0,7.0,63,-99.99,,,0.00,384.690002,,2013-03-07 21:02:00,
2013-03-07 13:11:00,39.0,28.0,-100.00,SE,140,3.0,7.0,63,-99.99,,,0.00,384.690002,,2013-03-07 21:11:00,
2013-03-07 13:42:00,40.0,28.0,-100.00,WSW,244,2.0,5.0,62,-99.99,,,0.00,359.119995,,2013-03-07 21:42:00,
2013-03-07 13:52:00,40.0,28.0,-100.00,WSW,244,2.0,5.0,62,-99.99,,,0.00,359.119995,,2013-03-07 21:52:00,
2013-03-07 14:01:00,40.0,28.0,-100.00,WSW,244,2.0,5.0,62,-99.99,,,0.00,359.119995,,2013-03-07 22:01:00,
2013-03-07 14:11:00,40.0,28.0,-100.00,WSW,244,2.0,5.0,62,-99.99,,,0.00,359.119995,,2013-03-07 22:11:00,
2013-03-07 14:42:00,43.0,28.0,-100.00,ENE,60,4.0,9.0,56,-99.99,,,0.00,475.109985,,2013-03-07 22:42:00,
2013-03-07 14:54:00,43.0,28.0,-100.00,ENE,60,4.0,9.0,56,-99.99,,,0.00,475.109985,,2013-03-07 22:54:00,
2013-03-07 15:02:00,43.0,28.0,-100.00,ENE,60,4.0,9.0,56,-99.99,,,0.00,475.109985,,2013-03-07 23:02:00,
2013-03-07 15:12:00,43.0,28.0,-100.00,ENE,60,4.0,9.0,56,-99.99,,,0.00,475.109985,,2013-03-07 23:12:00,
2013-03-07 15:42:00,43.0,27.0,-100.00,NNE,31,6.0,12.0,53,-99.99,,,0.00,493.119995,,2013-03-07 23:42:00,
2013-03-07 15:53:00,43.0,27.0,-100.00,NNE,31,6.0,12.0,53,-99.99,,,0.00,493.119995,,2013-03-07 23:53:00,
2013-03-07 16:02:00,43.0,27.0,-100.00,NNE,31,6.0,12.0,53,-99.99,,,0.00,493.119995,,2013-03-08 00:02:00,
2013-03-07 16:11:00,43.0,27.0,-100.00,NNE,31,6.0,12.0,53,-99.99,,,0.00,493.119995,,2013-03-08 00:11:00,
2013-03-07 16:43:00,42.0,27.0,-100.00,NNE,23,5.0,9.0,54,-99.99,,,0.00,165.610001,,2013-03-08 00:43:00,
2013-03-07 16:53:00,42.0,27.0,-100.00,NNE,23,5.0,9.0,54,-99.99,,,0.00,165.610001,,2013-03-08 00:53:00,
2013-03-07 17:01:00,42.0,27.0,-100.00,NNE,23,5.0,9.0,54,-99.99,,,0.00,165.610001,,2013-03-08 01:01:00,
2013-03-07 17:11:00,42.0,27.0,-100.00,NNE,23,5.0,9.0,54,-99.99,,,0.00,165.610001,,2013-03-08 01:11:00,
2013-03-07 17:32:00,41.0,28.0,-100.00,North,6,7.0,10.0,60,-99.99,,,0.00,48.810001,,2013-03-08 01:32:00,
2013-03-07 17:42:00,41.0,28.0,-100.00,North,6,7.0,10.0,60,-99.99,,,0.00,48.810001,,2013-03-08 01:42:00,
2013-03-07 17:52:00,41.0,28.0,-100.00,North,6,7.0,10.0,60,-99.99,,,0.00,48.810001,,2013-03-08 01:52:00,
2013-03-07 18:01:00,41.0,28.0,-100.00,North,6,7.0,10.0,60,-99.99,,,0.00,48.810001,,2013-03-08 02:01:00,
2013-03-07 18:11:00,41.0,28.0,-100.00,North,6,7.0,10.0,60,-99.99,,,0.00,48.810001,,2013-03-08 02:11:00,
2013-03-07 18:42:00,39.0,29.0,-100.00,North,10,4.0,8.0,66,-99.99,,,0.00,0.460000,,2013-03-08 02:42:00,
2013-03-07 18:52:00,39.0,29.0,-100.00,North,10,4.0,8.0,66,-99.99,,,0.00,0.460000,,2013-03-08 02:52:00,
2013-03-07 19:02:00,39.0,29.0,-100.00,North,10,4.0,8.0,66,-99.99,,,0.00,0.460000,,2013-03-08 03:02:00,
2013-03-07 19:11:00,39.0,29.0,-100.00,North,10,4.0,8.0,66,-99.99,,,0.00,0.460000,,2013-03-08 03:11:00,
2013-03-07 19:42:00,38.0,30.0,-100.00,NNE,24,3.0,5.0,70,-99.99,,,0.00,0.000000,,2013-03-08 03:42:00,
2013-03-07 19:52:00,38.0,30.0,-100.00,NNE,24,3.0,5.0,70,-99.99,,,0.00,0.000000,,2013-03-08 03:52:00,
2013-03-07 20:01:00,38.0,30.0,-100.00,NNE,24,3.0,5.0,70,-99.99,,,0.00,0.000000,,2013-03-08 04:01:00,
2013-03-07 20:11:00,38.0,30.0,-100.00,NNE,24,3.0,5.0,70,-99.99,,,0.00,0.000000,,2013-03-08 04:11:00,
2013-03-07 20:32:00,36.0,29.0,-100.00,NNE,20,3.0,5.0,74,-99.99,,,0.00,0.000000,,2013-03-08 04:32:00,
2013-03-07 20:42:00,36.0,29.0,-100.00,NNE,20,3.0,5.0,74,-99.99,,,0.00,0.000000,,2013-03-08 04:42:00,
2013-03-07 20:52:00,36.0,29.0,-100.00,NNE,20,3.0,5.0,74,-99.99,,,0.00,0.000000,,2013-03-08 04:52:00,
2013-03-07 21:01:00,36.0,29.0,-100.00,NNE,20,3.0,5.0,74,-99.99,,,0.00,0.000000,,2013-03-08 05:01:00,
2013-03-07 21:12:00,36.0,29.0,-100.00,NNE,20,3.0,5.0,74,-99.99,,,0.00,0.000000,,2013-03-08 05:12:00,
2013-03-07 21:42:00,35.0,30.0,-100.00,NNW,345,3.0,4.0,79,-99.99,,,0.00,0.000000,,2013-03-08 05:42:00,
2013-03-07 21:52:00,35.0,30.0,-100.00,NNW,345,3.0,4.0,79,-99.99,,,0.00,0.000000,,2013-03-08 05:52:00,
2013-03-07 22:01:00,35.0,30.0,-100.00,NNW,345,3.0,4.0,79,-99.99,,,0.00,0.000000,,2013-03-08 06:01:00,
2013-03-07 22:11:00,35.0,30.0,-100.00,NNW,345,3.0,4.0,79,-99.99,,,0.00,0.000000,,2013-03-08 06:11:00,
2013-03-07 22:32:00,33.0,28.0,-100.00,West,268,2.0,3.0,81,-99.99,,,0.00,0.000000,,2013-03-08 06:32:00,
2013-03-07 22:42:00,33.0,28.0,-100.00,West,268,2.0,3.0,81,-99.99,,,0.00,0.000000,,2013-03-08 06:42:00,
2013-03-07 22:52:00,33.0,28.0,-100.00,West,268,2.0,3.0,81,-99.99,,,0.00,0.000000,,2013-03-08 06:52:00,
2013-03-07 23:01:00,33.0,28.0,-100.00,West,268,2.0,3.0,81,-99.99,,,0.00,0.000000,,2013-03-08 07:01:00,
2013-03-07 23:11:00,33.0,28.0,-100.00,West,268,2.0,3.0,81,-99.99,,,0.00,0.000000,,2013-03-08 07:11:00,
2013-03-07 23:31:00,32.0,29.0,-100.00,WNW,302,3.0,4.0,86,-99.99,,,0.00,0.000000,,2013-03-08 07:31:00,
2013-03-07 23:41:00,32.0,29.0,-100.00,WNW,302,3.0,4.0,86,-99.99,,,0.00,0.000000,,2013-03-08 07:41:00,
2013-03-07 23:52:00,32.0,29.0,-100.00,WNW,302,3.0,4.0,86,-99.99,,,0.00,0.000000,,2013-03-08 07:52:00,